sensor_id;sensor_type;location;lat;lon;timestamp;P1;durP1;ratioP1;P2;durP2;ratioP2
60464;SDS011;46314;52.392;9.758;2024-01-10T00:01:59;15.98;;;7.93;;
60464;SDS011;46314;52.392;9.758;2024-01-10T00:04:26;16.17;;;8.23;;
60464;SDS011;46314;52.392;9.758;2024-01-10T00:06:52;13.80;;;7.95;;
60464;SDS011;46314;52.392;9.758;2024-01-10T00:09:20;17.75;;;7.32;;
60464;SDS011;46314;52.392;9.758;2024-01-10T00:11:47;15.70;;;8.63;;
60464;SDS011;46314;52.392;9.758;2024-01-10T00:14:13;15.55;;;7.28;;
60464;SDS011;46314;52.392;9.758;2024-01-10T00:16:39;18.63;;;9.25;;
60464;SDS011;46314;52.392;9.758;2024-01-10T00:19:06;15.18;;;7.68;;
60464;SDS011;46314;52.392;9.758;2024-01-10T00:21:33;14.27;;;8.82;;
60464;SDS011;46314;52.392;9.758;2024-01-10T00:23:59;14.00;;;8.52;;
60464;SDS011;46314;52.392;9.758;2024-01-10T00:26:27;16.30;;;9.32;;
60464;SDS011;46314;52.392;9.758;2024-01-10T00:28:54;15.48;;;8.25;;
60464;SDS011;46314;52.392;9.758;2024-01-10T00:31:29;13.48;;;7.50;;
60464;SDS011;46314;52.392;9.758;2024-01-10T00:33:55;13.65;;;8.43;;
60464;SDS011;46314;52.392;9.758;2024-01-10T00:36:22;15.38;;;8.90;;
60464;SDS011;46314;52.392;9.758;2024-01-10T00:38:48;14.77;;;8.55;;
60464;SDS011;46314;52.392;9.758;2024-01-10T00:41:15;16.20;;;8.68;;
60464;SDS011;46314;52.392;9.758;2024-01-10T00:43:43;12.05;;;7.97;;
60464;SDS011;46314;52.392;9.758;2024-01-10T00:46:09;14.25;;;7.78;;
60464;SDS011;46314;52.392;9.758;2024-01-10T00:48:35;17.48;;;8.23;;
60464;SDS011;46314;52.392;9.758;2024-01-10T00:51:02;14.38;;;8.48;;
60464;SDS011;46314;52.392;9.758;2024-01-10T00:53:29;18.60;;;9.00;;
60464;SDS011;46314;52.392;9.758;2024-01-10T00:55:55;18.13;;;8.48;;
60464;SDS011;46314;52.392;9.758;2024-01-10T00:58:22;17.88;;;8.98;;
60464;SDS011;46314;52.392;9.758;2024-01-10T01:00:49;17.45;;;10.02;;
60464;SDS011;46314;52.392;9.758;2024-01-10T01:03:16;20.15;;;10.40;;
60464;SDS011;46314;52.392;9.758;2024-01-10T01:05:42;13.95;;;8.50;;
60464;SDS011;46314;52.392;9.758;2024-01-10T01:08:09;15.07;;;8.43;;
60464;SDS011;46314;52.392;9.758;2024-01-10T01:10:36;17.00;;;9.38;;
60464;SDS011;46314;52.392;9.758;2024-01-10T01:13:03;14.40;;;9.02;;
60464;SDS011;46314;52.392;9.758;2024-01-10T01:15:30;16.20;;;8.77;;
60464;SDS011;46314;52.392;9.758;2024-01-10T01:17:58;16.75;;;8.73;;
60464;SDS011;46314;52.392;9.758;2024-01-10T01:20:24;16.83;;;9.93;;
60464;SDS011;46314;52.392;9.758;2024-01-10T01:22:54;14.90;;;9.43;;
60464;SDS011;46314;52.392;9.758;2024-01-10T01:25:20;14.40;;;8.55;;
60464;SDS011;46314;52.392;9.758;2024-01-10T01:27:47;18.05;;;9.18;;
60464;SDS011;46314;52.392;9.758;2024-01-10T01:30:13;16.25;;;8.70;;
60464;SDS011;46314;52.392;9.758;2024-01-10T01:32:40;20.98;;;10.73;;
60464;SDS011;46314;52.392;9.758;2024-01-10T01:35:08;19.33;;;9.52;;
60464;SDS011;46314;52.392;9.758;2024-01-10T01:37:34;13.57;;;8.77;;
60464;SDS011;46314;52.392;9.758;2024-01-10T01:40:01;18.38;;;10.10;;
60464;SDS011;46314;52.392;9.758;2024-01-10T01:42:27;18.15;;;10.20;;
60464;SDS011;46314;52.392;9.758;2024-01-10T01:44:54;19.33;;;10.40;;
60464;SDS011;46314;52.392;9.758;2024-01-10T01:47:20;19.13;;;9.48;;
60464;SDS011;46314;52.392;9.758;2024-01-10T01:49:47;17.38;;;9.68;;
60464;SDS011;46314;52.392;9.758;2024-01-10T01:52:15;20.25;;;9.90;;
60464;SDS011;46314;52.392;9.758;2024-01-10T01:54:42;19.40;;;9.98;;
60464;SDS011;46314;52.392;9.758;2024-01-10T01:57:08;19.27;;;9.80;;
60464;SDS011;46314;52.392;9.758;2024-01-10T01:59:35;17.15;;;10.07;;
60464;SDS011;46314;52.392;9.758;2024-01-10T02:02:02;15.57;;;9.90;;
60464;SDS011;46314;52.392;9.758;2024-01-10T02:04:31;16.58;;;10.52;;
60464;SDS011;46314;52.392;9.758;2024-01-10T02:06:57;19.38;;;10.48;;
60464;SDS011;46314;52.392;9.758;2024-01-10T02:09:25;17.52;;;10.02;;
60464;SDS011;46314;52.392;9.758;2024-01-10T02:11:51;16.40;;;9.68;;
60464;SDS011;46314;52.392;9.758;2024-01-10T02:14:19;16.60;;;10.02;;
60464;SDS011;46314;52.392;9.758;2024-01-10T02:16:45;22.35;;;11.90;;
60464;SDS011;46314;52.392;9.758;2024-01-10T02:19:19;18.20;;;9.93;;
60464;SDS011;46314;52.392;9.758;2024-01-10T02:21:46;20.70;;;10.48;;
60464;SDS011;46314;52.392;9.758;2024-01-10T02:24:13;16.73;;;10.05;;
60464;SDS011;46314;52.392;9.758;2024-01-10T02:26:40;16.33;;;9.70;;
60464;SDS011;46314;52.392;9.758;2024-01-10T02:29:08;17.60;;;10.10;;
60464;SDS011;46314;52.392;9.758;2024-01-10T02:31:35;17.15;;;9.45;;
60464;SDS011;46314;52.392;9.758;2024-01-10T02:34:01;20.90;;;10.45;;
60464;SDS011;46314;52.392;9.758;2024-01-10T02:36:28;17.05;;;10.73;;
60464;SDS011;46314;52.392;9.758;2024-01-10T02:38:54;17.40;;;10.68;;
60464;SDS011;46314;52.392;9.758;2024-01-10T02:41:21;17.65;;;10.77;;
60464;SDS011;46314;52.392;9.758;2024-01-10T02:43:48;18.52;;;10.40;;
60464;SDS011;46314;52.392;9.758;2024-01-10T02:46:15;19.52;;;10.75;;
60464;SDS011;46314;52.392;9.758;2024-01-10T02:48:41;19.60;;;10.00;;
60464;SDS011;46314;52.392;9.758;2024-01-10T02:51:08;18.08;;;9.85;;
60464;SDS011;46314;52.392;9.758;2024-01-10T02:53:34;20.83;;;10.75;;
60464;SDS011;46314;52.392;9.758;2024-01-10T02:56:01;19.50;;;10.38;;
60464;SDS011;46314;52.392;9.758;2024-01-10T02:58:27;19.80;;;10.80;;
60464;SDS011;46314;52.392;9.758;2024-01-10T03:00:55;17.98;;;11.02;;
60464;SDS011;46314;52.392;9.758;2024-01-10T03:03:22;17.90;;;10.90;;
60464;SDS011;46314;52.392;9.758;2024-01-10T03:05:48;20.42;;;10.88;;
60464;SDS011;46314;52.392;9.758;2024-01-10T03:08:15;19.00;;;11.57;;
60464;SDS011;46314;52.392;9.758;2024-01-10T03:10:41;21.13;;;11.10;;
60464;SDS011;46314;52.392;9.758;2024-01-10T03:13:08;21.15;;;11.00;;
60464;SDS011;46314;52.392;9.758;2024-01-10T03:15:34;18.52;;;11.68;;
60464;SDS011;46314;52.392;9.758;2024-01-10T03:18:02;18.67;;;11.07;;
60464;SDS011;46314;52.392;9.758;2024-01-10T03:20:29;21.20;;;10.75;;
60464;SDS011;46314;52.392;9.758;2024-01-10T03:22:56;21.67;;;10.52;;
60464;SDS011;46314;52.392;9.758;2024-01-10T03:25:22;20.50;;;12.30;;
60464;SDS011;46314;52.392;9.758;2024-01-10T03:27:49;20.27;;;11.95;;
60464;SDS011;46314;52.392;9.758;2024-01-10T03:30:15;27.42;;;12.25;;
60464;SDS011;46314;52.392;9.758;2024-01-10T03:32:42;24.05;;;12.55;;
60464;SDS011;46314;52.392;9.758;2024-01-10T03:35:10;23.73;;;12.43;;
60464;SDS011;46314;52.392;9.758;2024-01-10T03:37:37;19.90;;;12.13;;
60464;SDS011;46314;52.392;9.758;2024-01-10T03:40:03;22.65;;;12.38;;
60464;SDS011;46314;52.392;9.758;2024-01-10T03:42:30;28.30;;;14.00;;
60464;SDS011;46314;52.392;9.758;2024-01-10T03:44:57;24.15;;;13.38;;
60464;SDS011;46314;52.392;9.758;2024-01-10T03:47:23;24.80;;;13.30;;
60464;SDS011;46314;52.392;9.758;2024-01-10T03:49:50;25.23;;;14.45;;
60464;SDS011;46314;52.392;9.758;2024-01-10T03:52:17;25.35;;;13.82;;
60464;SDS011;46314;52.392;9.758;2024-01-10T03:54:44;21.85;;;12.85;;
60464;SDS011;46314;52.392;9.758;2024-01-10T03:57:10;23.05;;;14.18;;
60464;SDS011;46314;52.392;9.758;2024-01-10T03:59:37;28.20;;;14.63;;
60464;SDS011;46314;52.392;9.758;2024-01-10T04:02:04;28.77;;;15.82;;
60464;SDS011;46314;52.392;9.758;2024-01-10T04:04:31;33.05;;;15.70;;
60464;SDS011;46314;52.392;9.758;2024-01-10T04:07:00;27.02;;;15.05;;
60464;SDS011;46314;52.392;9.758;2024-01-10T04:09:28;29.38;;;15.30;;
60464;SDS011;46314;52.392;9.758;2024-01-10T04:11:54;26.05;;;14.95;;
60464;SDS011;46314;52.392;9.758;2024-01-10T04:14:21;28.98;;;14.80;;
60464;SDS011;46314;52.392;9.758;2024-01-10T04:16:47;31.05;;;15.48;;
60464;SDS011;46314;52.392;9.758;2024-01-10T04:19:14;24.45;;;14.70;;
60464;SDS011;46314;52.392;9.758;2024-01-10T04:21:40;28.83;;;15.98;;
60464;SDS011;46314;52.392;9.758;2024-01-10T04:24:07;29.98;;;16.58;;
60464;SDS011;46314;52.392;9.758;2024-01-10T04:26:34;27.85;;;15.75;;
60464;SDS011;46314;52.392;9.758;2024-01-10T04:29:01;31.38;;;16.33;;
60464;SDS011;46314;52.392;9.758;2024-01-10T04:31:28;30.92;;;16.83;;
60464;SDS011;46314;52.392;9.758;2024-01-10T04:33:54;36.75;;;16.35;;
60464;SDS011;46314;52.392;9.758;2024-01-10T04:36:21;35.28;;;18.50;;
60464;SDS011;46314;52.392;9.758;2024-01-10T04:38:47;35.45;;;18.88;;
60464;SDS011;46314;52.392;9.758;2024-01-10T04:41:14;29.40;;;17.27;;
60464;SDS011;46314;52.392;9.758;2024-01-10T04:43:42;38.20;;;19.08;;
60464;SDS011;46314;52.392;9.758;2024-01-10T04:46:08;36.47;;;18.27;;
60464;SDS011;46314;52.392;9.758;2024-01-10T04:48:34;33.38;;;18.40;;
60464;SDS011;46314;52.392;9.758;2024-01-10T04:51:01;36.65;;;19.92;;
60464;SDS011;46314;52.392;9.758;2024-01-10T04:53:27;37.33;;;18.92;;
60464;SDS011;46314;52.392;9.758;2024-01-10T04:55:54;36.80;;;19.88;;
60464;SDS011;46314;52.392;9.758;2024-01-10T04:58:20;38.80;;;18.48;;
60464;SDS011;46314;52.392;9.758;2024-01-10T05:00:48;32.88;;;18.90;;
60464;SDS011;46314;52.392;9.758;2024-01-10T05:03:15;36.38;;;19.77;;
60464;SDS011;46314;52.392;9.758;2024-01-10T05:05:41;40.92;;;19.08;;
60464;SDS011;46314;52.392;9.758;2024-01-10T05:08:08;37.65;;;19.13;;
60464;SDS011;46314;52.392;9.758;2024-01-10T05:10:34;37.60;;;18.70;;
60464;SDS011;46314;52.392;9.758;2024-01-10T05:13:01;32.30;;;17.80;;
60464;SDS011;46314;52.392;9.758;2024-01-10T05:15:27;36.55;;;18.55;;
60464;SDS011;46314;52.392;9.758;2024-01-10T05:17:55;38.70;;;20.20;;
60464;SDS011;46314;52.392;9.758;2024-01-10T05:20:21;35.72;;;18.48;;
60464;SDS011;46314;52.392;9.758;2024-01-10T05:22:48;36.38;;;17.65;;
60464;SDS011;46314;52.392;9.758;2024-01-10T05:25:14;31.58;;;16.77;;
60464;SDS011;46314;52.392;9.758;2024-01-10T05:27:41;37.58;;;18.00;;
60464;SDS011;46314;52.392;9.758;2024-01-10T05:30:08;34.67;;;19.52;;
60464;SDS011;46314;52.392;9.758;2024-01-10T05:32:35;33.08;;;18.30;;
60464;SDS011;46314;52.392;9.758;2024-01-10T05:35:03;33.20;;;18.35;;
60464;SDS011;46314;52.392;9.758;2024-01-10T05:37:30;35.35;;;17.60;;
60464;SDS011;46314;52.392;9.758;2024-01-10T05:39:57;35.30;;;17.92;;
60464;SDS011;46314;52.392;9.758;2024-01-10T05:42:23;38.00;;;19.08;;
60464;SDS011;46314;52.392;9.758;2024-01-10T05:44:50;30.30;;;18.55;;
60464;SDS011;46314;52.392;9.758;2024-01-10T05:47:16;29.20;;;17.33;;
60464;SDS011;46314;52.392;9.758;2024-01-10T05:49:43;34.13;;;19.38;;
60464;SDS011;46314;52.392;9.758;2024-01-10T05:52:10;38.50;;;18.92;;
60464;SDS011;46314;52.392;9.758;2024-01-10T05:54:38;33.33;;;19.73;;
60464;SDS011;46314;52.392;9.758;2024-01-10T05:57:04;27.98;;;17.73;;
60464;SDS011;46314;52.392;9.758;2024-01-10T05:59:31;32.63;;;18.30;;
60464;SDS011;46314;52.392;9.758;2024-01-10T06:01:57;30.55;;;19.02;;
60464;SDS011;46314;52.392;9.758;2024-01-10T06:04:24;32.88;;;18.45;;
60464;SDS011;46314;52.392;9.758;2024-01-10T06:06:51;31.83;;;17.52;;
60464;SDS011;46314;52.392;9.758;2024-01-10T06:09:18;38.67;;;18.50;;
60464;SDS011;46314;52.392;9.758;2024-01-10T06:11:45;38.42;;;19.52;;
60464;SDS011;46314;52.392;9.758;2024-01-10T06:14:11;34.22;;;18.42;;
60464;SDS011;46314;52.392;9.758;2024-01-10T06:16:38;44.83;;;17.92;;
60464;SDS011;46314;52.392;9.758;2024-01-10T06:19:04;33.60;;;18.23;;
60464;SDS011;46314;52.392;9.758;2024-01-10T06:21:31;30.55;;;17.23;;
60464;SDS011;46314;52.392;9.758;2024-01-10T06:23:58;31.83;;;17.42;;
60464;SDS011;46314;52.392;9.758;2024-01-10T06:26:26;34.35;;;18.90;;
60464;SDS011;46314;52.392;9.758;2024-01-10T06:28:52;33.08;;;18.88;;
60464;SDS011;46314;52.392;9.758;2024-01-10T06:31:19;34.38;;;19.60;;
60464;SDS011;46314;52.392;9.758;2024-01-10T06:33:45;34.15;;;18.27;;
60464;SDS011;46314;52.392;9.758;2024-01-10T06:36:12;39.65;;;19.73;;
60464;SDS011;46314;52.392;9.758;2024-01-10T06:38:38;30.02;;;17.65;;
60464;SDS011;46314;52.392;9.758;2024-01-10T06:41:07;35.72;;;20.23;;
60464;SDS011;46314;52.392;9.758;2024-01-10T06:43:35;34.40;;;18.98;;
60464;SDS011;46314;52.392;9.758;2024-01-10T06:46:02;37.58;;;19.38;;
60464;SDS011;46314;52.392;9.758;2024-01-10T06:48:28;36.83;;;18.48;;
60464;SDS011;46314;52.392;9.758;2024-01-10T06:50:55;34.13;;;18.80;;
60464;SDS011;46314;52.392;9.758;2024-01-10T06:53:21;36.25;;;19.33;;
60464;SDS011;46314;52.392;9.758;2024-01-10T06:55:48;38.63;;;19.25;;
60464;SDS011;46314;52.392;9.758;2024-01-10T06:58:15;35.42;;;18.88;;
60464;SDS011;46314;52.392;9.758;2024-01-10T07:00:42;35.47;;;18.98;;
60464;SDS011;46314;52.392;9.758;2024-01-10T07:03:09;36.47;;;18.70;;
60464;SDS011;46314;52.392;9.758;2024-01-10T07:05:35;35.75;;;18.77;;
60464;SDS011;46314;52.392;9.758;2024-01-10T07:08:02;34.08;;;18.80;;
60464;SDS011;46314;52.392;9.758;2024-01-10T07:10:29;34.08;;;18.75;;
60464;SDS011;46314;52.392;9.758;2024-01-10T07:12:56;37.72;;;19.63;;
60464;SDS011;46314;52.392;9.758;2024-01-10T07:15:23;36.45;;;18.55;;
60464;SDS011;46314;52.392;9.758;2024-01-10T07:17:52;31.05;;;16.10;;
60464;SDS011;46314;52.392;9.758;2024-01-10T07:20:19;29.13;;;18.45;;
60464;SDS011;46314;52.392;9.758;2024-01-10T07:22:45;38.00;;;19.42;;
60464;SDS011;46314;52.392;9.758;2024-01-10T07:25:12;35.88;;;18.83;;
60464;SDS011;46314;52.392;9.758;2024-01-10T07:27:39;38.20;;;20.90;;
60464;SDS011;46314;52.392;9.758;2024-01-10T07:30:06;36.17;;;18.25;;
60464;SDS011;46314;52.392;9.758;2024-01-10T07:32:35;41.90;;;21.58;;
60464;SDS011;46314;52.392;9.758;2024-01-10T07:35:03;35.97;;;19.00;;
60464;SDS011;46314;52.392;9.758;2024-01-10T07:37:30;32.67;;;18.70;;
60464;SDS011;46314;52.392;9.758;2024-01-10T07:39:57;35.33;;;20.17;;
60464;SDS011;46314;52.392;9.758;2024-01-10T07:42:23;33.10;;;18.65;;
60464;SDS011;46314;52.392;9.758;2024-01-10T07:44:50;37.42;;;19.75;;
60464;SDS011;46314;52.392;9.758;2024-01-10T07:47:19;30.33;;;19.67;;
60464;SDS011;46314;52.392;9.758;2024-01-10T07:49:46;30.42;;;17.95;;
60464;SDS011;46314;52.392;9.758;2024-01-10T07:52:14;41.42;;;21.55;;
60464;SDS011;46314;52.392;9.758;2024-01-10T07:54:40;33.40;;;19.67;;
60464;SDS011;46314;52.392;9.758;2024-01-10T07:57:07;38.47;;;20.02;;
60464;SDS011;46314;52.392;9.758;2024-01-10T07:59:33;37.45;;;19.88;;
60464;SDS011;46314;52.392;9.758;2024-01-10T08:02:00;34.50;;;18.42;;
60464;SDS011;46314;52.392;9.758;2024-01-10T08:04:27;34.92;;;19.40;;
60464;SDS011;46314;52.392;9.758;2024-01-10T08:06:53;37.05;;;19.65;;
60464;SDS011;46314;52.392;9.758;2024-01-10T08:09:21;37.13;;;20.27;;
60464;SDS011;46314;52.392;9.758;2024-01-10T08:11:48;34.95;;;20.48;;
60464;SDS011;46314;52.392;9.758;2024-01-10T08:14:14;39.05;;;20.10;;
60464;SDS011;46314;52.392;9.758;2024-01-10T08:16:41;35.70;;;18.90;;
60464;SDS011;46314;52.392;9.758;2024-01-10T08:19:08;38.58;;;20.63;;
60464;SDS011;46314;52.392;9.758;2024-01-10T08:21:34;39.30;;;20.08;;
60464;SDS011;46314;52.392;9.758;2024-01-10T08:24:01;40.78;;;20.13;;
60464;SDS011;46314;52.392;9.758;2024-01-10T08:26:30;39.45;;;21.85;;
60464;SDS011;46314;52.392;9.758;2024-01-10T08:28:56;35.20;;;20.48;;
60464;SDS011;46314;52.392;9.758;2024-01-10T08:31:23;36.55;;;20.52;;
60464;SDS011;46314;52.392;9.758;2024-01-10T08:33:49;35.15;;;19.65;;
60464;SDS011;46314;52.392;9.758;2024-01-10T08:36:16;38.45;;;20.73;;
60464;SDS011;46314;52.392;9.758;2024-01-10T08:38:42;34.75;;;20.25;;
60464;SDS011;46314;52.392;9.758;2024-01-10T08:41:09;39.42;;;20.38;;
60464;SDS011;46314;52.392;9.758;2024-01-10T08:43:37;37.55;;;21.67;;
60464;SDS011;46314;52.392;9.758;2024-01-10T08:46:03;39.13;;;19.58;;
60464;SDS011;46314;52.392;9.758;2024-01-10T08:48:30;38.22;;;20.27;;
60464;SDS011;46314;52.392;9.758;2024-01-10T08:50:57;42.88;;;21.85;;
60464;SDS011;46314;52.392;9.758;2024-01-10T08:53:23;35.40;;;17.73;;
60464;SDS011;46314;52.392;9.758;2024-01-10T08:55:50;40.08;;;20.00;;
60464;SDS011;46314;52.392;9.758;2024-01-10T08:58:16;40.47;;;20.83;;
60464;SDS011;46314;52.392;9.758;2024-01-10T09:00:44;39.30;;;19.10;;
60464;SDS011;46314;52.392;9.758;2024-01-10T09:03:11;40.55;;;21.02;;
60464;SDS011;46314;52.392;9.758;2024-01-10T09:05:38;37.75;;;20.67;;
60464;SDS011;46314;52.392;9.758;2024-01-10T09:08:05;38.90;;;21.23;;
60464;SDS011;46314;52.392;9.758;2024-01-10T09:10:31;43.05;;;22.33;;
60464;SDS011;46314;52.392;9.758;2024-01-10T09:12:58;38.15;;;22.83;;
60464;SDS011;46314;52.392;9.758;2024-01-10T09:15:26;42.45;;;22.25;;
60464;SDS011;46314;52.392;9.758;2024-01-10T09:17:54;38.45;;;20.50;;
60464;SDS011;46314;52.392;9.758;2024-01-10T09:20:21;40.97;;;21.25;;
60464;SDS011;46314;52.392;9.758;2024-01-10T09:22:47;39.40;;;21.85;;
60464;SDS011;46314;52.392;9.758;2024-01-10T09:25:14;35.30;;;20.77;;
60464;SDS011;46314;52.392;9.758;2024-01-10T09:27:40;37.45;;;21.15;;
60464;SDS011;46314;52.392;9.758;2024-01-10T09:30:07;39.58;;;22.13;;
60464;SDS011;46314;52.392;9.758;2024-01-10T09:32:34;45.15;;;22.70;;
60464;SDS011;46314;52.392;9.758;2024-01-10T09:35:02;38.38;;;22.17;;
60464;SDS011;46314;52.392;9.758;2024-01-10T09:37:29;43.33;;;23.13;;
60464;SDS011;46314;52.392;9.758;2024-01-10T09:39:55;37.33;;;21.35;;
60464;SDS011;46314;52.392;9.758;2024-01-10T09:42:22;38.78;;;21.10;;
60464;SDS011;46314;52.392;9.758;2024-01-10T09:44:48;39.20;;;23.35;;
60464;SDS011;46314;52.392;9.758;2024-01-10T09:47:15;43.30;;;22.35;;
60464;SDS011;46314;52.392;9.758;2024-01-10T09:49:42;38.65;;;21.67;;
60464;SDS011;46314;52.392;9.758;2024-01-10T09:52:10;37.75;;;20.98;;
60464;SDS011;46314;52.392;9.758;2024-01-10T09:54:37;40.92;;;22.40;;
60464;SDS011;46314;52.392;9.758;2024-01-10T09:57:06;44.85;;;22.33;;
60464;SDS011;46314;52.392;9.758;2024-01-10T09:59:32;43.50;;;22.00;;
60464;SDS011;46314;52.392;9.758;2024-01-10T10:01:59;41.00;;;22.10;;
60464;SDS011;46314;52.392;9.758;2024-01-10T10:04:27;41.88;;;22.35;;
60464;SDS011;46314;52.392;9.758;2024-01-10T10:06:58;40.28;;;23.20;;
60464;SDS011;46314;52.392;9.758;2024-01-10T10:09:26;37.30;;;20.55;;
60464;SDS011;46314;52.392;9.758;2024-01-10T10:11:54;38.72;;;21.25;;
60464;SDS011;46314;52.392;9.758;2024-01-10T10:14:21;38.05;;;21.58;;
60464;SDS011;46314;52.392;9.758;2024-01-10T10:16:47;40.38;;;23.70;;
60464;SDS011;46314;52.392;9.758;2024-01-10T10:19:22;43.05;;;22.25;;
60464;SDS011;46314;52.392;9.758;2024-01-10T10:22:07;36.97;;;20.88;;
60464;SDS011;46314;52.392;9.758;2024-01-10T10:24:35;39.10;;;21.75;;
60464;SDS011;46314;52.392;9.758;2024-01-10T10:27:03;41.05;;;20.90;;
60464;SDS011;46314;52.392;9.758;2024-01-10T10:29:34;38.78;;;21.02;;
60464;SDS011;46314;52.392;9.758;2024-01-10T10:32:02;39.22;;;21.60;;
60464;SDS011;46314;52.392;9.758;2024-01-10T10:34:30;39.05;;;21.67;;
60464;SDS011;46314;52.392;9.758;2024-01-10T10:36:57;39.40;;;23.38;;
60464;SDS011;46314;52.392;9.758;2024-01-10T10:39:24;40.75;;;24.88;;
60464;SDS011;46314;52.392;9.758;2024-01-10T10:41:52;42.88;;;23.48;;
60464;SDS011;46314;52.392;9.758;2024-01-10T10:44:19;42.38;;;23.33;;
60464;SDS011;46314;52.392;9.758;2024-01-10T10:46:50;45.72;;;23.60;;
60464;SDS011;46314;52.392;9.758;2024-01-10T10:49:36;38.78;;;22.00;;
60464;SDS011;46314;52.392;9.758;2024-01-10T10:52:13;38.90;;;21.90;;
60464;SDS011;46314;52.392;9.758;2024-01-10T10:54:41;43.00;;;26.27;;
60464;SDS011;46314;52.392;9.758;2024-01-10T10:57:10;40.45;;;21.52;;
60464;SDS011;46314;52.392;9.758;2024-01-10T10:59:37;43.35;;;24.25;;
60464;SDS011;46314;52.392;9.758;2024-01-10T11:02:05;43.35;;;23.38;;
60464;SDS011;46314;52.392;9.758;2024-01-10T11:04:35;38.40;;;22.65;;
60464;SDS011;46314;52.392;9.758;2024-01-10T11:07:03;44.20;;;23.70;;
60464;SDS011;46314;52.392;9.758;2024-01-10T11:09:30;43.28;;;24.70;;
60464;SDS011;46314;52.392;9.758;2024-01-10T11:12:00;45.10;;;23.33;;
60464;SDS011;46314;52.392;9.758;2024-01-10T11:14:48;39.88;;;22.42;;
60464;SDS011;46314;52.392;9.758;2024-01-10T11:17:33;41.42;;;23.33;;
60464;SDS011;46314;52.392;9.758;2024-01-10T11:20:13;42.65;;;22.10;;
60464;SDS011;46314;52.392;9.758;2024-01-10T11:25:57;48.70;;;24.05;;
60464;SDS011;46314;52.392;9.758;2024-01-10T11:28:24;40.90;;;22.77;;
60464;SDS011;46314;52.392;9.758;2024-01-10T11:30:52;40.38;;;22.10;;
60464;SDS011;46314;52.392;9.758;2024-01-10T11:33:20;42.15;;;23.17;;
60464;SDS011;46314;52.392;9.758;2024-01-10T11:36:07;42.00;;;22.55;;
60464;SDS011;46314;52.392;9.758;2024-01-10T11:38:40;38.08;;;21.63;;
60464;SDS011;46314;52.392;9.758;2024-01-10T11:41:10;42.80;;;24.27;;
60464;SDS011;46314;52.392;9.758;2024-01-10T11:43:37;39.67;;;22.92;;
60464;SDS011;46314;52.392;9.758;2024-01-10T11:46:05;36.40;;;23.25;;
60464;SDS011;46314;52.392;9.758;2024-01-10T11:48:32;43.75;;;22.35;;
60464;SDS011;46314;52.392;9.758;2024-01-10T11:50:59;41.80;;;22.23;;
60464;SDS011;46314;52.392;9.758;2024-01-10T11:53:38;39.35;;;22.27;;
60464;SDS011;46314;52.392;9.758;2024-01-10T11:56:08;40.65;;;22.35;;
60464;SDS011;46314;52.392;9.758;2024-01-10T12:01:22;40.70;;;21.58;;
60464;SDS011;46314;52.392;9.758;2024-01-10T12:03:51;41.33;;;22.35;;
60464;SDS011;46314;52.392;9.758;2024-01-10T12:06:38;39.35;;;22.67;;
60464;SDS011;46314;52.392;9.758;2024-01-10T12:09:05;41.25;;;22.92;;
60464;SDS011;46314;52.392;9.758;2024-01-10T12:11:31;40.47;;;22.70;;
60464;SDS011;46314;52.392;9.758;2024-01-10T12:13:57;35.60;;;19.73;;
60464;SDS011;46314;52.392;9.758;2024-01-10T12:16:25;48.63;;;23.67;;
60464;SDS011;46314;52.392;9.758;2024-01-10T12:18:52;34.20;;;21.42;;
60464;SDS011;46314;52.392;9.758;2024-01-10T12:21:18;38.45;;;22.13;;
60464;SDS011;46314;52.392;9.758;2024-01-10T12:23:45;36.08;;;20.67;;
60464;SDS011;46314;52.392;9.758;2024-01-10T12:26:11;44.10;;;22.52;;
60464;SDS011;46314;52.392;9.758;2024-01-10T12:28:38;35.50;;;21.20;;
60464;SDS011;46314;52.392;9.758;2024-01-10T12:31:06;38.75;;;20.88;;
60464;SDS011;46314;52.392;9.758;2024-01-10T12:33:34;40.40;;;21.42;;
60464;SDS011;46314;52.392;9.758;2024-01-10T12:36:04;45.70;;;22.52;;
60464;SDS011;46314;52.392;9.758;2024-01-10T12:38:32;39.10;;;21.02;;
60464;SDS011;46314;52.392;9.758;2024-01-10T12:40:59;45.03;;;22.33;;
60464;SDS011;46314;52.392;9.758;2024-01-10T12:43:26;37.30;;;21.48;;
60464;SDS011;46314;52.392;9.758;2024-01-10T12:46:02;36.63;;;22.00;;
60464;SDS011;46314;52.392;9.758;2024-01-10T12:48:29;41.13;;;21.52;;
60464;SDS011;46314;52.392;9.758;2024-01-10T12:50:57;39.47;;;22.00;;
60464;SDS011;46314;52.392;9.758;2024-01-10T12:53:23;35.75;;;20.23;;
60464;SDS011;46314;52.392;9.758;2024-01-10T12:55:50;45.53;;;23.33;;
60464;SDS011;46314;52.392;9.758;2024-01-10T12:58:17;38.63;;;20.27;;
60464;SDS011;46314;52.392;9.758;2024-01-10T13:00:43;30.42;;;19.45;;
60464;SDS011;46314;52.392;9.758;2024-01-10T13:03:09;35.05;;;20.13;;
60464;SDS011;46314;52.392;9.758;2024-01-10T13:05:36;33.92;;;20.65;;
60464;SDS011;46314;52.392;9.758;2024-01-10T13:08:04;36.60;;;21.20;;
60464;SDS011;46314;52.392;9.758;2024-01-10T13:10:31;36.28;;;19.48;;
60464;SDS011;46314;52.392;9.758;2024-01-10T13:12:57;35.85;;;20.70;;
60464;SDS011;46314;52.392;9.758;2024-01-10T13:15:24;37.42;;;21.40;;
60464;SDS011;46314;52.392;9.758;2024-01-10T13:17:51;41.13;;;22.38;;
60464;SDS011;46314;52.392;9.758;2024-01-10T13:20:18;39.83;;;20.88;;
60464;SDS011;46314;52.392;9.758;2024-01-10T13:22:45;39.03;;;21.23;;
60464;SDS011;46314;52.392;9.758;2024-01-10T13:25:12;35.78;;;20.70;;
60464;SDS011;46314;52.392;9.758;2024-01-10T13:27:39;41.28;;;21.45;;
60464;SDS011;46314;52.392;9.758;2024-01-10T13:30:06;36.63;;;21.45;;
60464;SDS011;46314;52.392;9.758;2024-01-10T13:32:33;38.50;;;21.83;;
60464;SDS011;46314;52.392;9.758;2024-01-10T13:35:00;39.15;;;21.23;;
60464;SDS011;46314;52.392;9.758;2024-01-10T13:37:26;37.53;;;23.10;;
60464;SDS011;46314;52.392;9.758;2024-01-10T13:39:53;38.75;;;21.20;;
60464;SDS011;46314;52.392;9.758;2024-01-10T13:42:21;37.28;;;21.67;;
60464;SDS011;46314;52.392;9.758;2024-01-10T13:44:47;37.55;;;21.98;;
60464;SDS011;46314;52.392;9.758;2024-01-10T13:47:14;35.63;;;21.55;;
60464;SDS011;46314;52.392;9.758;2024-01-10T13:49:40;41.33;;;22.17;;
60464;SDS011;46314;52.392;9.758;2024-01-10T13:52:07;41.33;;;22.25;;
60464;SDS011;46314;52.392;9.758;2024-01-10T13:54:33;38.90;;;21.88;;
60464;SDS011;46314;52.392;9.758;2024-01-10T13:57:00;40.20;;;22.50;;
60464;SDS011;46314;52.392;9.758;2024-01-10T13:59:28;36.80;;;23.83;;
60464;SDS011;46314;52.392;9.758;2024-01-10T14:01:54;35.80;;;21.20;;
60464;SDS011;46314;52.392;9.758;2024-01-10T14:04:21;32.03;;;19.75;;
60464;SDS011;46314;52.392;9.758;2024-01-10T14:06:47;36.85;;;19.48;;
60464;SDS011;46314;52.392;9.758;2024-01-10T14:09:14;37.17;;;22.42;;
60464;SDS011;46314;52.392;9.758;2024-01-10T14:11:40;38.58;;;20.98;;
60464;SDS011;46314;52.392;9.758;2024-01-10T14:14:07;43.92;;;23.48;;
60464;SDS011;46314;52.392;9.758;2024-01-10T14:16:35;37.45;;;22.35;;
60464;SDS011;46314;52.392;9.758;2024-01-10T14:19:02;37.80;;;21.80;;
60464;SDS011;46314;52.392;9.758;2024-01-10T14:21:29;36.10;;;22.13;;
60464;SDS011;46314;52.392;9.758;2024-01-10T14:23:55;40.42;;;23.63;;
60464;SDS011;46314;52.392;9.758;2024-01-10T14:26:22;38.75;;;21.63;;
60464;SDS011;46314;52.392;9.758;2024-01-10T14:28:48;38.25;;;21.83;;
60464;SDS011;46314;52.392;9.758;2024-01-10T14:31:14;36.55;;;20.98;;